Time;durP1;ratioP1;P1;durP2;ratioP2;P2;SDS_P1;SDS_P2;PMS_P1;PMS_P2;Temp;Humidity;BMP_temperature;BMP_pressure;BME280_temperature;BME280_humidity;BME280_pressure;Samples;Min_cycle;Max_cycle;Signal;HPM_P1;HPM_P2
2021/07/25 00:07:44;;;;;;;9.88;8.23;;;21.90;67.30;;;;;;20826689;28;20113;-20
2021/07/25 00:17:44;;;;;;;9.52;8.32;;;21.90;66.90;;;;;;20826483;28;20105;-20
2021/07/25 00:27:52;;;;;;;9.80;8.38;;;21.90;67.10;;;;;;20825050;28;20029;-22
2021/07/25 00:37:52;;;;;;;10.95;9.23;;;21.90;67.20;;;;;;20818014;28;20026;-20
2021/07/25 00:47:53;;;;;;;14.07;8.93;;;21.90;67.30;;;;;;20837669;28;20386;-19
2021/07/25 00:57:54;;;;;;;12.45;9.63;;;21.90;67.20;;;;;;20841905;28;20026;-20
2021/07/25 01:08:04;;;;;;;9.88;8.88;;;21.90;67.20;;;;;;20829343;28;20571;-20
2021/07/25 01:18:05;;;;;;;12.63;11.02;;;21.90;67.10;;;;;;20826153;28;20104;-20
2021/07/25 01:28:20;;;;;;;14.88;11.05;;;21.90;67.40;;;;;;20827525;28;20068;-20
2021/07/25 01:38:23;;;;;;;12.95;11.52;;;21.90;67.40;;;;;;20826322;28;20037;-21
2021/07/25 01:48:24;;;;;;;28.33;13.85;;;21.90;67.20;;;;;;20928618;22;20511;-20
2021/07/25 01:58:25;;;;;;;18.65;14.55;;;21.90;67.40;;;;;;20932387;28;20032;-20
2021/07/25 02:08:25;;;;;;;16.65;14.82;;;21.90;67.40;;;;;;20919042;28;20025;-20
2021/07/25 02:18:27;;;;;;;18.17;15.68;;;21.90;67.50;;;;;;20904552;28;20051;-20
2021/07/25 02:28:28;;;;;;;18.70;14.77;;;21.90;67.50;;;;;;20892418;28;20500;-20
2021/07/25 02:38:28;;;;;;;16.88;14.65;;;21.90;67.50;;;;;;20894792;28;20025;-20
2021/07/25 02:48:29;;;;;;;20.13;16.17;;;21.90;67.50;;;;;;20900767;28;20080;-20
2021/07/25 02:58:30;;;;;;;16.23;14.57;;;21.90;67.50;;;;;;20904387;28;20056;-20
2021/07/25 03:08:31;;;;;;;19.63;15.30;;;21.90;67.50;;;;;;20902672;28;20111;-20
2021/07/25 03:18:32;;;;;;;15.70;13.93;;;21.90;67.40;;;;;;20944443;28;20025;-20
2021/07/25 03:28:32;;;;;;;18.92;15.95;;;21.90;67.20;;;;;;20931383;28;20576;-20
2021/07/25 03:38:33;;;;;;;28.53;16.07;;;21.90;67.90;;;;;;20915141;28;20238;-20
2021/07/25 03:48:34;;;;;;;17.73;15.20;;;21.90;67.30;;;;;;20890471;28;21048;-20
2021/07/25 03:58:35;;;;;;;15.85;14.00;;;21.90;67.40;;;;;;20917081;28;20088;-20
2021/07/25 04:08:36;;;;;;;16.63;13.77;;;21.90;67.30;;;;;;20898414;28;20024;-20
2021/07/25 04:18:36;;;;;;;17.55;15.52;;;21.90;67.20;;;;;;20921368;28;20044;-20
2021/07/25 04:28:38;;;;;;;17.70;13.85;;;21.90;67.20;;;;;;20927850;28;20124;-19
2021/07/25 04:38:39;;;;;;;16.80;14.68;;;21.90;67.20;;;;;;20919746;28;20496;-20
2021/07/25 04:48:46;;;;;;;18.30;13.32;;;21.90;67.20;;;;;;20902382;28;20076;-19
2021/07/25 04:58:50;;;;;;;14.98;13.32;;;21.90;67.20;;;;;;20934010;28;20032;-19
2021/07/25 05:08:51;;;;;;;16.25;13.30;;;21.90;67.10;;;;;;20920286;28;20134;-19
2021/07/25 05:19:20;;;;;;;15.45;13.85;;;21.90;67.00;;;;;;20913852;28;20025;-19
2021/07/25 05:29:24;;;;;;;15.77;13.65;;;21.90;67.10;;;;;;20912229;28;20531;-19
2021/07/25 05:39:24;;;;;;;15.23;13.73;;;21.90;67.20;;;;;;20909501;28;20020;-21
2021/07/25 05:49:25;;;;;;;20.33;14.25;;;21.90;67.10;;;;;;20908396;28;20032;-21
2021/07/25 05:59:25;;;;;;;15.13;13.65;;;22.00;67.60;;;;;;20919228;28;20580;-20
2021/07/25 06:09:26;;;;;;;14.75;13.25;;;21.90;67.50;;;;;;20907503;28;20033;-22
2021/07/25 06:19:27;;;;;;;16.60;13.52;;;21.90;67.30;;;;;;20907411;28;20032;-19
2021/07/25 06:29:27;;;;;;;18.80;14.70;;;22.00;67.70;;;;;;20903465;28;20040;-20
2021/07/25 06:39:28;;;;;;;17.85;13.82;;;21.90;67.90;;;;;;20904760;28;20025;-20
2021/07/25 06:49:28;;;;;;;14.68;13.18;;;21.90;67.80;;;;;;20902512;28;20029;-20
2021/07/25 06:59:29;;;;;;;15.43;13.20;;;22.00;68.10;;;;;;20902302;28;20028;-20
2021/07/25 07:09:29;;;;;;;19.58;13.07;;;22.00;68.20;;;;;;20916326;28;20032;-20
2021/07/25 07:19:31;;;;;;;18.50;13.38;;;22.00;68.20;;;;;;20914600;28;20049;-21
2021/07/25 07:29:32;;;;;;;16.02;12.23;;;22.00;68.60;;;;;;20924994;28;20090;-21
2021/07/25 07:39:34;;;;;;;19.73;13.20;;;22.00;68.60;;;;;;20934503;28;20035;-20
2021/07/25 07:49:36;;;;;;;21.25;10.98;;;22.00;68.60;;;;;;20934954;28;20061;-20
2021/07/25 07:59:36;;;;;;;22.48;12.73;;;22.10;68.70;;;;;;20936219;28;20065;-21
2021/07/25 08:09:37;;;;;;;30.17;13.00;;;22.10;68.80;;;;;;20921233;28;20048;-20
2021/07/25 08:19:37;;;;;;;32.60;16.80;;;22.10;68.70;;;;;;20941029;28;20036;-22
2021/07/25 08:29:39;;;;;;;27.40;15.88;;;22.10;68.80;;;;;;20905734;28;20029;-20
2021/07/25 08:39:40;;;;;;;34.72;15.50;;;22.10;68.80;;;;;;20914879;28;20451;-20
2021/07/25 08:49:57;;;;;;;31.13;15.97;;;22.10;68.90;;;;;;20930810;28;20060;-18
2021/07/25 08:59:58;;;;;;;28.77;15.60;;;22.20;69.00;;;;;;20930774;28;20033;-20
2021/07/25 09:10:19;;;;;;;29.73;14.00;;;22.20;69.10;;;;;;20932679;28;20029;-20
2021/07/25 09:20:35;;;;;;;34.15;15.63;;;22.30;69.00;;;;;;20937515;28;20550;-20
2021/07/25 09:30:36;;;;;;;21.35;14.68;;;22.30;69.00;;;;;;20931506;28;20460;-19
2021/07/25 09:40:37;;;;;;;29.50;13.48;;;22.30;68.80;;;;;;20914263;28;20079;-20
2021/07/25 09:50:38;;;;;;;32.22;13.95;;;22.40;68.80;;;;;;20908923;28;20033;-20
2021/07/25 10:00:44;;;;;;;25.95;13.60;;;22.40;68.90;;;;;;20912112;28;20032;-20
2021/07/25 10:10:49;;;;;;;20.20;12.73;;;22.40;69.10;;;;;;20906310;28;20028;-20
2021/07/25 10:20:55;;;;;;;18.23;12.07;;;22.40;69.00;;;;;;20906004;28;20025;-20
2021/07/25 10:30:57;;;;;;;22.13;12.07;;;22.40;69.50;;;;;;20905795;28;20143;-20
2021/07/25 10:40:58;;;;;;;27.27;13.00;;;22.50;69.70;;;;;;20910065;28;20032;-20
2021/07/25 10:51:11;;;;;;;26.80;13.45;;;22.60;69.60;;;;;;20903534;28;20037;-21
2021/07/25 11:01:44;;;;;;;35.97;14.80;;;22.60;69.70;;;;;;20900851;28;20036;-20
2021/07/25 11:11:47;;;;;;;20.85;12.40;;;22.60;70.60;;;;;;20901604;28;20017;-20
2021/07/25 11:21:53;;;;;;;37.90;13.70;;;22.80;71.10;;;;;;20900964;28;20075;-20
2021/07/25 11:31:53;;;;;;;27.90;12.75;;;22.80;71.60;;;;;;20900289;28;20786;-21
2021/07/25 11:41:54;;;;;;;32.17;13.02;;;22.80;71.50;;;;;;20910229;28;20025;-21
2021/07/25 11:51:59;;;;;;;31.02;13.95;;;22.80;71.80;;;;;;20902125;28;20036;-21
2021/07/25 12:02:00;;;;;;;33.60;13.18;;;22.90;71.90;;;;;;20903886;28;20081;-21
2021/07/25 12:12:10;;;;;;;37.28;12.55;;;22.90;72.00;;;;;;20902427;28;20115;-19
2021/07/25 12:22:17;;;;;;;34.92;13.38;;;23.00;71.60;;;;;;20910127;28;20029;-21
2021/07/25 12:32:21;;;;;;;33.20;13.32;;;23.00;71.90;;;;;;20922779;28;20029;-20
2021/07/25 12:42:42;;;;;;;26.60;11.70;;;23.00;71.50;;;;;;20928976;28;20566;-20
2021/07/25 12:52:43;;;;;;;23.80;11.07;;;22.90;71.00;;;;;;20938011;28;20035;-21
2021/07/25 13:13:02;;;;;;;32.88;11.70;;;23.00;70.70;;;;;;20921410;28;20033;-20
2021/07/25 13:23:03;;;;;;;27.67;10.30;;;22.90;70.80;;;;;;20944601;28;20040;-20
2021/07/25 13:33:03;;;;;;;21.40;10.27;;;22.90;70.70;;;;;;20936502;28;21275;-20
2021/07/25 13:43:10;;;;;;;22.45;10.63;;;22.90;70.00;;;;;;20926427;28;20025;-21
2021/07/25 13:53:10;;;;;;;17.15;9.10;;;22.90;69.90;;;;;;20927918;28;20029;-21
2021/07/25 14:03:11;;;;;;;22.88;10.80;;;22.90;69.50;;;;;;20931622;28;20496;-20
2021/07/25 14:13:11;;;;;;;19.08;9.88;;;22.90;69.60;;;;;;20935066;28;20051;-21
2021/07/25 14:23:12;;;;;;;21.02;9.70;;;22.80;69.70;;;;;;20912249;28;20040;-20
2021/07/25 14:33:12;;;;;;;17.25;9.80;;;22.80;69.60;;;;;;20914288;28;20028;-20
2021/07/25 14:43:13;;;;;;;15.20;8.82;;;22.80;69.40;;;;;;20916183;28;20056;-21
2021/07/25 14:53:14;;;;;;;14.55;9.02;;;22.80;69.40;;;;;;20902980;28;20120;-21
2021/07/25 15:03:14;;;;;;;16.63;7.68;;;22.80;69.30;;;;;;20907198;28;20123;-21
2021/07/25 15:13:15;;;;;;;13.82;7.53;;;22.80;69.20;;;;;;20901740;28;20033;-20
2021/07/25 15:23:16;;;;;;;11.52;7.70;;;22.80;69.30;;;;;;20901179;28;20444;-20
2021/07/25 15:33:23;;;;;;;12.18;8.00;;;22.80;69.40;;;;;;20905154;28;20043;-20
2021/07/25 15:43:23;;;;;;;12.98;8.45;;;22.70;69.30;;;;;;20905841;28;20554;-20
2021/07/25 15:53:24;;;;;;;14.95;7.30;;;22.80;69.30;;;;;;20904873;28;20056;-20
2021/07/25 16:03:25;;;;;;;10.27;7.90;;;22.80;69.40;;;;;;20915697;28;20025;-20
2021/07/25 16:13:25;;;;;;;10.50;7.50;;;22.80;69.40;;;;;;20914742;28;20582;-20
2021/07/25 16:23:25;;;;;;;11.98;7.47;;;22.90;69.60;;;;;;20914546;28;20036;-21
2021/07/25 16:33:26;;;;;;;13.68;8.13;;;22.90;69.60;;;;;;20924913;28;20025;-20
2021/07/25 16:43:27;;;;;;;10.02;6.65;;;23.00;69.60;;;;;;20918413;28;20033;-20
2021/07/25 16:53:27;;;;;;;9.25;7.43;;;23.00;69.30;;;;;;20912355;28;20112;-20
2021/07/25 17:03:28;;;;;;;12.55;6.63;;;23.10;69.10;;;;;;20911941;28;20529;-20
2021/07/25 17:13:29;;;;;;;9.27;6.82;;;23.10;69.20;;;;;;20941680;28;20464;-20
2021/07/25 17:23:30;;;;;;;14.77;7.45;;;23.20;69.30;;;;;;20950852;28;20036;-19
2021/07/25 17:33:31;;;;;;;8.15;6.47;;;23.20;69.00;;;;;;20944258;28;20036;-20
2021/07/25 17:43:31;;;;;;;15.05;7.43;;;23.20;69.10;;;;;;20883543;28;20069;-20
2021/07/25 17:53:32;;;;;;;11.00;7.68;;;23.20;69.00;;;;;;20894330;28;20119;-20
2021/07/25 18:03:35;;;;;;;10.45;8.05;;;23.20;69.30;;;;;;20920524;28;20032;-20
2021/07/25 18:13:36;;;;;;;15.35;7.53;;;23.10;69.70;;;;;;20928136;28;20036;-20
2021/07/25 18:23:36;;;;;;;16.80;8.27;;;23.10;70.40;;;;;;20929037;28;20032;-21
2021/07/25 18:33:39;;;;;;;14.95;7.43;;;23.00;70.90;;;;;;20922899;28;20067;-21
2021/07/25 18:43:39;;;;;;;19.63;8.20;;;23.00;71.80;;;;;;20933947;28;20077;-20
2021/07/25 18:53:40;;;;;;;21.92;8.85;;;23.00;72.90;;;;;;20927035;28;20069;-20
2021/07/25 19:03:41;;;;;;;36.75;9.40;;;23.00;73.10;;;;;;20903145;28;20231;-19
2021/07/25 19:13:42;;;;;;;31.52;9.70;;;23.10;73.30;;;;;;20920938;28;20393;-20
2021/07/25 19:23:42;;;;;;;28.48;9.55;;;23.10;73.30;;;;;;20925619;28;20119;-21
2021/07/25 19:33:44;;;;;;;20.65;8.18;;;23.10;73.40;;;;;;20902337;28;20037;-21
2021/07/25 19:43:44;;;;;;;19.35;9.05;;;23.10;73.50;;;;;;20910675;28;20037;-21
2021/07/25 19:53:45;;;;;;;15.05;8.05;;;23.10;73.50;;;;;;20910152;28;20031;-21
2021/07/25 20:03:45;;;;;;;20.27;8.27;;;23.10;73.60;;;;;;20909981;28;20041;-20
2021/07/25 20:13:46;;;;;;;14.05;7.50;;;23.10;73.70;;;;;;20907345;28;20025;-21
2021/07/25 20:23:47;;;;;;;23.73;7.45;;;23.10;73.80;;;;;;20906163;28;20100;-20
2021/07/25 20:33:48;;;;;;;15.60;7.18;;;23.10;74.00;;;;;;20906978;28;20513;-20
2021/07/25 20:43:49;;;;;;;22.88;8.32;;;23.10;74.00;;;;;;20910362;28;20200;-21
2021/07/25 20:53:50;;;;;;;13.55;7.45;;;23.10;73.90;;;;;;20911123;28;20076;-20
2021/07/25 21:03:50;;;;;;;11.38;7.43;;;23.10;74.20;;;;;;20908812;28;20071;-20
2021/07/25 21:13:52;;;;;;;13.70;7.70;;;23.10;73.70;;;;;;20998081;22;20036;-22
2021/07/25 21:23:53;;;;;;;11.68;6.70;;;23.00;73.70;;;;;;20917243;28;20036;-20
2021/07/25 21:33:53;;;;;;;16.67;7.45;;;23.00;73.50;;;;;;20975861;28;20024;-21
2021/07/25 21:43:54;;;;;;;22.50;6.88;;;22.90;73.00;;;;;;20991412;28;20035;-19
2021/07/25 21:53:55;;;;;;;8.48;6.95;;;22.90;72.80;;;;;;20992808;28;20500;-20
2021/07/25 22:14:06;;;;;;;13.93;8.07;;;22.80;72.10;;;;;;20993858;28;20626;-21
2021/07/25 22:24:07;;;;;;;11.77;6.97;;;22.80;71.60;;;;;;21004498;28;20028;-20
2021/07/25 22:34:07;;;;;;;7.70;6.50;;;22.70;71.30;;;;;;20988867;28;20167;-22
2021/07/25 22:44:08;;;;;;;6.97;5.90;;;22.80;71.20;;;;;;20987844;28;20807;-20
2021/07/25 22:54:12;;;;;;;7.15;6.32;;;22.70;71.00;;;;;;20991035;28;20044;-20
2021/07/25 23:04:16;;;;;;;8.98;6.55;;;22.70;70.80;;;;;;20986584;28;20039;-21
2021/07/25 23:14:16;;;;;;;7.38;6.13;;;22.70;70.90;;;;;;21000655;28;20482;-19
2021/07/25 23:24:17;;;;;;;7.80;5.68;;;22.70;70.60;;;;;;21010544;28;20040;-19
2021/07/25 23:34:17;;;;;;;8.85;6.97;;;22.70;70.50;;;;;;21013796;28;20046;-19
2021/07/25 23:44:18;;;;;;;7.38;5.80;;;22.70;70.40;;;;;;21018133;28;20397;-20
2021/07/25 23:54:18;;;;;;;7.28;5.82;;;22.60;70.30;;;;;;21021634;28;20028;-20
